Time;durP1;ratioP1;P1;durP2;ratioP2;P2;SDS_P1;SDS_P2;PMS_P1;PMS_P2;Temp;Humidity;BMP_temperature;BMP_pressure;BME280_temperature;BME280_humidity;BME280_pressure;Samples;Min_cycle;Max_cycle;Signal;HPM_P1;HPM_P2
2022/01/04 00:00:13;;;;;;;1.73;0.90;;;9.70;94.30;;;;;;5036742;28;20488;-75
2022/01/04 00:02:40;;;;;;;1.02;0.77;;;9.70;94.80;;;;;;5038210;28;20108;-75
2022/01/04 00:05:06;;;;;;;1.48;0.80;;;9.80;94.90;;;;;;5036403;28;20112;-75
2022/01/04 00:07:32;;;;;;;1.42;1.10;;;9.70;94.90;;;;;;5035540;28;20114;-75
2022/01/04 00:09:59;;;;;;;0.70;0.60;;;9.70;94.80;;;;;;5065718;28;20086;-75
2022/01/04 00:15:09;;;;;;;0.60;0.60;;;9.70;94.30;;;;;;5036547;28;20446;-75
2022/01/04 00:17:36;;;;;;;1.55;0.93;;;9.80;94.90;;;;;;5034860;28;20034;-75
2022/01/04 00:20:03;;;;;;;1.05;0.85;;;9.70;94.10;;;;;;5048269;28;20557;-75
2022/01/04 00:22:29;;;;;;;1.73;0.80;;;9.70;94.90;;;;;;5056170;28;20037;-75
2022/01/04 00:24:55;;;;;;;0.90;0.60;;;9.90;95.00;;;;;;5056233;28;20032;-75
2022/01/04 00:27:20;;;;;;;1.38;1.00;;;9.80;94.80;;;;;;5055856;28;20044;-75
2022/01/04 00:29:46;;;;;;;1.73;0.98;;;9.70;94.00;;;;;;5043896;28;20545;-76
2022/01/04 00:32:12;;;;;;;1.13;0.90;;;9.80;94.90;;;;;;5050231;28;20438;-75
2022/01/04 00:34:37;;;;;;;1.23;0.77;;;9.80;94.80;;;;;;5054846;28;20021;-75
2022/01/04 00:37:03;;;;;;;1.10;0.80;;;9.60;94.00;;;;;;5054587;28;20535;-75
2022/01/04 00:39:29;;;;;;;2.05;0.88;;;9.70;94.30;;;;;;5041806;28;20055;-75
2022/01/04 00:41:55;;;;;;;2.35;0.80;;;9.70;94.50;;;;;;5035778;28;20044;-75
2022/01/04 00:44:20;;;;;;;1.02;0.80;;;9.70;94.80;;;;;;5035865;28;20079;-76
2022/01/04 00:46:46;;;;;;;0.88;0.70;;;9.80;94.80;;;;;;5035108;28;20095;-76
2022/01/04 00:49:12;;;;;;;2.05;0.60;;;9.70;94.60;;;;;;5036246;28;20112;-76
2022/01/04 00:51:43;;;;;;;1.25;0.85;;;9.80;94.80;;;;;;5035688;28;20138;-76
2022/01/04 00:54:10;;;;;;;5.03;1.00;;;10.00;95.30;;;;;;5036078;28;20032;-76
2022/01/04 00:56:36;;;;;;;1.63;0.90;;;10.00;94.50;;;;;;5035728;28;20045;-75
2022/01/04 00:59:03;;;;;;;0.98;0.70;;;10.00;94.40;;;;;;5034572;28;20029;-76
2022/01/04 01:01:29;;;;;;;1.40;0.77;;;9.80;94.20;;;;;;5045586;28;20499;-76
2022/01/04 01:03:55;;;;;;;1.40;0.98;;;9.90;94.80;;;;;;5053832;28;20029;-76
2022/01/04 01:06:24;;;;;;;1.27;0.80;;;9.90;94.60;;;;;;5055618;28;20062;-75
2022/01/04 01:08:50;;;;;;;4.60;1.00;;;9.80;94.40;;;;;;5060878;28;20499;-76
2022/01/04 01:11:16;;;;;;;1.15;0.80;;;9.90;94.30;;;;;;5062248;28;20059;-76
2022/01/04 01:13:42;;;;;;;1.05;0.90;;;9.90;94.60;;;;;;5035411;28;20031;-75
2022/01/04 01:16:08;;;;;;;1.52;1.00;;;9.90;94.70;;;;;;5035365;28;20104;-75
2022/01/04 01:18:35;;;;;;;1.98;1.08;;;9.80;94.40;;;;;;5035616;28;20026;-76
2022/01/04 01:21:01;;;;;;;1.80;1.10;;;9.80;94.40;;;;;;5035223;28;20033;-76
2022/01/04 01:23:27;;;;;;;1.48;1.20;;;9.80;94.50;;;;;;5034174;28;20488;-75
2022/01/04 01:25:52;;;;;;;1.88;1.50;;;9.80;94.30;;;;;;5037740;28;20473;-75
2022/01/04 01:28:19;;;;;;;1.75;1.20;;;9.90;94.80;;;;;;5044050;28;20060;-76
2022/01/04 01:30:45;;;;;;;1.77;1.33;;;9.80;93.50;;;;;;5035235;28;20075;-76
2022/01/04 01:33:11;;;;;;;1.77;1.10;;;9.70;94.10;;;;;;5035146;28;20116;-76
2022/01/04 01:35:38;;;;;;;1.88;1.30;;;9.70;94.30;;;;;;5035407;28;20029;-76
2022/01/04 01:38:05;;;;;;;1.52;0.88;;;9.80;94.70;;;;;;5035392;28;20013;-76
2022/01/04 01:40:33;;;;;;;1.73;0.90;;;9.90;94.70;;;;;;5035279;28;20030;-75
2022/01/04 01:42:59;;;;;;;3.08;1.23;;;9.80;94.20;;;;;;5033526;28;20089;-76
2022/01/04 01:45:25;;;;;;;2.20;1.20;;;9.80;94.20;;;;;;5035014;28;20436;-76
2022/01/04 01:47:52;;;;;;;1.13;0.90;;;9.90;94.30;;;;;;5035160;28;20029;-76
2022/01/04 01:50:19;;;;;;;1.52;1.20;;;9.80;93.50;;;;;;5034954;28;20033;-76
2022/01/04 01:52:48;;;;;;;2.25;0.93;;;10.00;95.00;;;;;;5034833;28;20029;-76
2022/01/04 01:55:18;;;;;;;1.25;0.90;;;9.90;94.20;;;;;;5034654;28;20133;-76
2022/01/04 01:57:44;;;;;;;1.25;1.00;;;9.80;93.70;;;;;;5034567;28;20026;-76
2022/01/04 02:00:12;;;;;;;1.77;1.10;;;9.90;94.80;;;;;;5034846;28;20085;-76
2022/01/04 02:02:59;;;;;;;1.25;0.93;;;10.00;94.70;;;;;;5034886;28;20022;-76
2022/01/04 02:05:25;;;;;;;1.52;1.20;;;10.00;94.10;;;;;;5033265;28;20040;-76
2022/01/04 02:07:52;;;;;;;1.90;1.08;;;9.90;94.40;;;;;;5050086;28;20022;-76
2022/01/04 02:10:17;;;;;;;1.05;0.93;;;10.10;94.50;;;;;;5062274;28;20032;-76
2022/01/04 02:12:46;;;;;;;1.25;1.05;;;10.10;94.60;;;;;;5036772;28;20018;-76
2022/01/04 02:15:15;;;;;;;1.63;0.98;;;10.00;93.90;;;;;;5038634;28;20026;-76
2022/01/04 02:17:41;;;;;;;1.63;1.05;;;10.10;94.60;;;;;;5038675;28;20112;-76
2022/01/04 02:20:07;;;;;;;2.17;1.40;;;10.20;94.80;;;;;;5038512;28;20072;-75
2022/01/04 02:22:34;;;;;;;1.50;0.90;;;10.10;94.00;;;;;;5038918;28;20025;-76
2022/01/04 02:25:00;;;;;;;2.05;1.30;;;10.00;93.10;;;;;;5046790;28;20107;-76
2022/01/04 02:27:26;;;;;;;2.47;1.27;;;10.10;94.50;;;;;;5051093;28;20396;-76
2022/01/04 02:29:51;;;;;;;4.40;1.15;;;10.10;94.10;;;;;;5038562;28;20095;-76
2022/01/04 02:32:18;;;;;;;3.22;1.17;;;10.10;94.00;;;;;;5049422;28;20040;-76
2022/01/04 02:34:53;;;;;;;1.88;1.27;;;10.20;94.40;;;;;;5056980;28;20052;-76
2022/01/04 02:37:20;;;;;;;3.58;1.33;;;10.20;94.60;;;;;;5046154;28;20025;-75
2022/01/04 02:39:46;;;;;;;1.77;0.93;;;10.20;94.50;;;;;;5038365;28;20045;-76
2022/01/04 02:42:12;;;;;;;1.90;1.20;;;10.20;94.10;;;;;;5053674;28;20021;-76
2022/01/04 02:44:38;;;;;;;2.83;1.30;;;10.10;93.80;;;;;;5038383;28;20025;-76
2022/01/04 02:47:04;;;;;;;3.00;1.10;;;10.10;94.30;;;;;;5038237;28;20029;-76
2022/01/04 02:49:29;;;;;;;2.67;0.80;;;10.10;93.90;;;;;;5038213;28;20026;-76
2022/01/04 02:51:55;;;;;;;3.22;1.17;;;10.10;94.00;;;;;;5038185;28;20534;-76
2022/01/04 02:54:21;;;;;;;3.03;1.10;;;10.20;93.80;;;;;;5037909;28;20041;-76
2022/01/04 02:56:47;;;;;;;1.60;1.10;;;10.10;93.20;;;;;;5037782;28;20049;-76
2022/01/04 02:59:13;;;;;;;2.20;1.05;;;10.10;94.00;;;;;;5037718;28;20021;-76
2022/01/04 03:01:38;;;;;;;1.67;1.08;;;10.20;94.30;;;;;;5037899;28;20028;-76
2022/01/04 03:04:04;;;;;;;2.67;1.35;;;10.20;94.00;;;;;;5037903;28;20075;-76
2022/01/04 03:06:30;;;;;;;2.05;1.23;;;10.20;93.70;;;;;;5038048;28;20112;-76
2022/01/04 03:08:56;;;;;;;2.47;1.48;;;10.00;93.40;;;;;;5050033;28;20113;-76
2022/01/04 03:11:21;;;;;;;3.40;1.30;;;10.00;93.40;;;;;;5077713;28;20024;-76
2022/01/04 03:13:47;;;;;;;1.80;1.35;;;10.00;93.20;;;;;;5077366;28;20555;-76
2022/01/04 03:16:13;;;;;;;2.13;1.30;;;10.10;94.10;;;;;;5052383;28;20124;-76
2022/01/04 03:18:56;;;;;;;2.22;1.38;;;10.10;93.70;;;;;;5037737;28;20037;-76
2022/01/04 03:21:22;;;;;;;1.70;1.40;;;10.20;93.90;;;;;;5036215;28;20036;-76
2022/01/04 03:23:48;;;;;;;4.03;1.50;;;10.20;93.70;;;;;;5036615;28;20030;-76
2022/01/04 03:26:13;;;;;;;1.77;1.13;;;10.10;93.70;;;;;;5037851;28;20025;-76
2022/01/04 03:28:42;;;;;;;1.30;1.00;;;10.20;93.80;;;;;;5037444;28;20598;-75
2022/01/04 03:31:08;;;;;;;1.75;1.25;;;10.20;93.80;;;;;;5037136;28;20053;-76
2022/01/04 03:33:35;;;;;;;1.30;0.98;;;10.20;93.50;;;;;;5036024;28;20037;-76
2022/01/04 03:36:03;;;;;;;1.15;1.02;;;10.00;92.90;;;;;;5037339;28;20021;-76
2022/01/04 03:38:29;;;;;;;2.55;1.30;;;10.00;92.60;;;;;;5037325;28;20022;-76
2022/01/04 03:40:54;;;;;;;1.48;1.08;;;10.10;93.80;;;;;;5037343;28;20534;-76
2022/01/04 03:43:21;;;;;;;1.65;1.20;;;10.20;93.70;;;;;;5037313;28;20895;-76
2022/01/04 03:45:48;;;;;;;2.20;1.50;;;10.30;94.00;;;;;;5037103;28;20105;-76
2022/01/04 03:48:14;;;;;;;1.83;1.25;;;10.20;93.30;;;;;;5036866;28;20035;-76
2022/01/04 03:50:40;;;;;;;1.52;1.10;;;10.20;93.30;;;;;;5037244;28;20029;-76
2022/01/04 03:53:06;;;;;;;1.73;1.38;;;10.30;93.70;;;;;;5037118;28;20115;-76
2022/01/04 03:55:32;;;;;;;1.58;1.08;;;10.40;93.80;;;;;;5035493;28;20053;-76
2022/01/04 03:57:58;;;;;;;7.20;1.17;;;10.30;92.90;;;;;;5037029;28;20032;-76
2022/01/04 04:00:24;;;;;;;2.45;1.10;;;10.30;93.30;;;;;;5036711;28;20032;-76
2022/01/04 04:02:49;;;;;;;2.65;1.20;;;10.30;93.40;;;;;;5035663;28;20025;-75
2022/01/04 04:05:15;;;;;;;1.52;1.20;;;10.30;93.60;;;;;;5036806;28;20052;-76
2022/01/04 04:07:41;;;;;;;4.88;1.45;;;10.30;93.40;;;;;;5036366;28;20038;-76
2022/01/04 04:10:08;;;;;;;1.70;1.15;;;10.40;93.30;;;;;;5068634;28;20036;-76
2022/01/04 04:12:34;;;;;;;4.25;1.80;;;10.30;93.10;;;;;;5075302;28;20035;-76
2022/01/04 04:15:04;;;;;;;2.40;1.30;;;10.30;93.00;;;;;;5072629;28;20143;-76
2022/01/04 04:17:30;;;;;;;2.63;1.58;;;10.30;92.80;;;;;;5056499;28;20441;-76
2022/01/04 04:19:58;;;;;;;2.28;1.30;;;10.30;93.00;;;;;;5055220;28;20032;-76
2022/01/04 04:22:23;;;;;;;1.58;1.23;;;10.30;93.10;;;;;;5039764;28;20026;-76
2022/01/04 04:24:49;;;;;;;5.70;1.45;;;10.30;93.00;;;;;;5036429;28;20033;-76
2022/01/04 04:27:15;;;;;;;2.95;1.38;;;10.30;92.30;;;;;;5036454;28;20032;-76
2022/01/04 04:29:41;;;;;;;3.42;1.17;;;10.30;92.90;;;;;;5034572;28;20029;-76
2022/01/04 04:32:08;;;;;;;1.45;1.20;;;10.30;93.10;;;;;;5051743;28;20059;-76
2022/01/04 04:34:34;;;;;;;2.58;1.83;;;10.40;93.20;;;;;;5036169;28;20032;-76
2022/01/04 04:37:00;;;;;;;6.07;1.63;;;10.40;92.90;;;;;;5040647;28;20060;-76
2022/01/04 04:39:26;;;;;;;2.58;1.67;;;10.30;93.00;;;;;;5056238;28;20047;-76
2022/01/04 04:41:52;;;;;;;2.53;1.60;;;10.30;92.90;;;;;;5055953;28;20424;-76
2022/01/04 04:44:18;;;;;;;2.30;1.70;;;10.30;92.60;;;;;;5054731;28;20016;-76
2022/01/04 04:46:44;;;;;;;4.85;1.45;;;10.30;92.60;;;;;;5055848;28;20394;-76
2022/01/04 04:49:10;;;;;;;3.38;1.70;;;10.30;92.50;;;;;;5038603;28;20029;-76
2022/01/04 04:51:35;;;;;;;2.97;1.88;;;10.30;92.40;;;;;;5036036;28;20079;-76
2022/01/04 04:54:06;;;;;;;4.35;2.42;;;10.30;93.00;;;;;;5035592;28;20641;-76
2022/01/04 04:56:34;;;;;;;4.93;2.45;;;10.30;92.50;;;;;;5035733;28;20553;-76
2022/01/04 04:59:00;;;;;;;5.38;2.95;;;10.30;92.70;;;;;;5035807;28;20025;-76
2022/01/04 05:01:26;;;;;;;4.88;2.90;;;10.30;92.80;;;;;;5035540;28;20031;-76
2022/01/04 05:03:52;;;;;;;4.78;2.78;;;10.30;92.40;;;;;;5035676;28;20033;-76
2022/01/04 05:06:18;;;;;;;4.38;2.58;;;10.30;92.50;;;;;;5035729;28;20034;-76
2022/01/04 05:08:44;;;;;;;4.63;2.85;;;10.30;92.20;;;;;;5042885;28;20046;-76
2022/01/04 05:11:12;;;;;;;4.18;2.65;;;10.30;92.40;;;;;;5075518;28;20044;-76
2022/01/04 05:13:37;;;;;;;7.40;2.88;;;10.30;92.40;;;;;;5075427;28;20039;-76
2022/01/04 05:16:03;;;;;;;4.85;2.70;;;10.20;91.70;;;;;;5074966;28;20033;-76
2022/01/04 05:18:29;;;;;;;5.00;3.00;;;10.20;92.30;;;;;;5045341;28;20017;-76
2022/01/04 05:20:55;;;;;;;8.13;3.60;;;10.20;92.40;;;;;;5053910;28;20033;-79
2022/01/04 05:23:20;;;;;;;7.85;3.50;;;10.20;92.50;;;;;;5055407;28;20127;-77
2022/01/04 05:25:46;;;;;;;7.93;3.67;;;10.20;92.40;;;;;;5053990;28;20104;-78
2022/01/04 05:28:19;;;;;;;7.70;3.17;;;10.30;92.80;;;;;;5055374;28;20020;-79
2022/01/04 05:30:45;;;;;;;8.55;3.90;;;10.30;92.70;;;;;;5055067;28;20457;-75
2022/01/04 05:33:10;;;;;;;9.82;4.10;;;10.30;92.60;;;;;;5052305;28;20048;-76
2022/01/04 05:35:36;;;;;;;7.57;3.78;;;10.30;92.80;;;;;;5053921;28;20036;-76
2022/01/04 05:38:02;;;;;;;6.63;3.50;;;10.30;92.80;;;;;;5053580;28;20017;-76
2022/01/04 05:40:28;;;;;;;9.77;4.22;;;10.30;92.60;;;;;;5054967;28;20540;-76
2022/01/04 05:42:53;;;;;;;6.60;3.40;;;10.30;92.00;;;;;;5041853;28;20056;-76
2022/01/04 05:45:22;;;;;;;7.20;4.00;;;10.30;92.50;;;;;;5034870;28;20021;-75
2022/01/04 06:18:48;;;;;;;8.73;3.90;;;8.60;95.30;;;;;;5072254;28;20754;-80
2022/01/04 06:21:13;;;;;;;10.77;6.05;;;8.70;95.30;;;;;;5062288;28;20102;-79
2022/01/04 06:23:42;;;;;;;9.50;5.50;;;9.00;94.90;;;;;;5066395;28;20039;-83
2022/01/04 06:26:09;;;;;;;6.75;3.75;;;9.30;94.60;;;;;;5070946;28;20029;-84
2022/01/04 06:28:34;;;;;;;8.57;5.25;;;9.50;94.40;;;;;;5071098;28;20741;-88
2022/01/04 06:31:00;;;;;;;9.00;4.45;;;9.70;93.80;;;;;;5072264;28;20055;-86
2022/01/04 06:33:26;;;;;;;7.15;4.28;;;9.80;93.30;;;;;;5061861;28;20021;-86
2022/01/04 06:35:52;;;;;;;10.57;4.50;;;9.90;93.20;;;;;;5059449;28;20016;-86
2022/01/04 06:38:17;;;;;;;6.35;3.90;;;9.90;92.70;;;;;;5067652;28;20028;-86
2022/01/04 06:40:43;;;;;;;6.50;4.25;;;10.00;92.40;;;;;;5070908;28;20099;-86
2022/01/04 06:43:09;;;;;;;8.77;3.92;;;10.00;92.40;;;;;;5074202;28;20020;-86
2022/01/04 06:45:35;;;;;;;7.65;3.90;;;10.00;91.80;;;;;;5069121;28;20025;-87
2022/01/04 06:48:01;;;;;;;8.60;3.95;;;10.10;92.20;;;;;;5073830;28;20030;-86
2022/01/04 06:50:26;;;;;;;7.35;3.35;;;10.10;91.70;;;;;;5069415;28;20032;-87
2022/01/04 06:52:52;;;;;;;10.68;4.22;;;10.20;91.20;;;;;;5071288;28;20021;-89
2022/01/04 06:55:18;;;;;;;8.95;4.03;;;10.20;91.00;;;;;;5074055;28;20037;-89
2022/01/04 06:57:44;;;;;;;7.38;3.05;;;10.20;90.80;;;;;;5070206;28;20482;-87
2022/01/04 07:00:12;;;;;;;7.88;3.30;;;10.20;89.90;;;;;;5068902;28;20029;-87
2022/01/04 07:02:38;;;;;;;8.35;3.35;;;10.20;90.40;;;;;;5065174;28;20037;-87
2022/01/04 07:05:05;;;;;;;7.53;2.78;;;10.20;89.80;;;;;;5068570;28;20120;-87
2022/01/04 07:07:30;;;;;;;4.95;2.60;;;10.20;89.90;;;;;;5066895;28;20024;-87
2022/01/04 07:09:56;;;;;;;8.40;2.80;;;10.20;89.40;;;;;;5070351;28;20027;-87
2022/01/04 07:12:22;;;;;;;9.57;3.22;;;10.10;89.60;;;;;;5071640;28;20062;-86
2022/01/04 07:14:48;;;;;;;7.38;3.00;;;10.10;90.00;;;;;;5070473;28;20457;-86
2022/01/04 07:17:13;;;;;;;5.20;2.58;;;10.10;89.80;;;;;;5072252;28;20045;-86
2022/01/04 07:19:39;;;;;;;5.15;2.85;;;10.10;89.90;;;;;;5068444;28;20077;-87
2022/01/04 07:22:08;;;;;;;9.55;4.13;;;10.10;90.00;;;;;;5071561;28;20021;-87
2022/01/04 07:24:34;;;;;;;9.52;3.78;;;10.10;89.70;;;;;;5067300;28;20051;-88
2022/01/04 07:27:00;;;;;;;11.52;4.45;;;10.10;89.70;;;;;;5065548;28;20029;-92
2022/01/04 07:29:25;;;;;;;10.40;4.13;;;10.10;90.00;;;;;;5044757;28;20029;-86
2022/01/04 07:31:51;;;;;;;6.68;3.20;;;10.00;90.00;;;;;;5052263;28;20391;-90
2022/01/04 07:34:17;;;;;;;11.27;5.25;;;10.00;89.20;;;;;;5057973;28;20108;-89
2022/01/04 07:36:42;;;;;;;6.15;3.85;;;10.10;89.50;;;;;;5053208;28;20033;-90
2022/01/04 07:39:11;;;;;;;10.85;3.75;;;10.10;89.90;;;;;;5059863;28;20451;-91
2022/01/04 07:41:37;;;;;;;5.05;3.13;;;10.10;89.50;;;;;;5055944;28;20488;-85
2022/01/04 07:44:03;;;;;;;8.43;3.33;;;10.10;88.90;;;;;;5050827;28;20094;-84
2022/01/04 07:46:28;;;;;;;5.55;2.47;;;10.00;89.20;;;;;;5056911;28;20071;-83
2022/01/04 07:48:54;;;;;;;5.53;2.22;;;10.00;89.40;;;;;;5056857;28;20029;-85
2022/01/04 07:51:20;;;;;;;4.45;2.20;;;10.00;89.70;;;;;;5058119;28;20035;-84
2022/01/04 07:53:45;;;;;;;6.50;2.45;;;10.00;89.50;;;;;;5054367;28;20083;-85
2022/01/04 07:56:11;;;;;;;10.35;2.95;;;10.00;89.60;;;;;;5036708;28;20013;-84
2022/01/04 07:58:37;;;;;;;7.82;2.90;;;10.00;89.60;;;;;;5036617;28;20115;-84
2022/01/04 08:01:03;;;;;;;7.30;3.45;;;9.90;89.30;;;;;;5035737;28;20030;-84
2022/01/04 08:03:28;;;;;;;7.90;2.97;;;10.00;89.00;;;;;;5031037;28;20028;-84
2022/01/04 08:05:55;;;;;;;15.95;3.90;;;9.90;88.90;;;;;;5055246;28;20025;-85
2022/01/04 08:08:21;;;;;;;8.82;2.90;;;9.90;89.70;;;;;;5055250;28;20055;-85
2022/01/04 08:10:48;;;;;;;8.68;3.00;;;9.90;89.70;;;;;;5075299;28;20108;-85
2022/01/04 08:13:14;;;;;;;9.38;3.88;;;9.90;89.70;;;;;;5072421;28;20024;-84
2022/01/04 08:15:39;;;;;;;7.45;2.50;;;10.00;90.00;;;;;;5036295;28;20026;-85
2022/01/04 08:18:06;;;;;;;6.68;2.67;;;9.90;89.30;;;;;;5052606;28;20037;-85
2022/01/04 08:20:31;;;;;;;7.93;2.95;;;9.90;89.80;;;;;;5048001;28;20096;-84
2022/01/04 08:22:59;;;;;;;9.23;3.25;;;9.90;89.80;;;;;;5056326;28;20049;-85
2022/01/04 08:25:25;;;;;;;6.03;2.55;;;10.00;90.10;;;;;;5050757;28;20029;-85
2022/01/04 08:27:52;;;;;;;8.10;2.55;;;9.90;89.20;;;;;;5035233;28;20036;-85
2022/01/04 08:30:19;;;;;;;5.68;2.85;;;9.90;89.60;;;;;;5051689;28;20025;-85
2022/01/04 08:32:45;;;;;;;8.60;2.60;;;9.90;89.50;;;;;;5047711;28;20044;-84
2022/01/04 08:35:11;;;;;;;4.15;2.60;;;9.90;89.30;;;;;;5054261;28;20025;-84
2022/01/04 08:37:38;;;;;;;4.05;2.67;;;9.80;89.10;;;;;;5055414;28;20104;-85
2022/01/04 08:40:05;;;;;;;11.80;2.72;;;9.90;89.30;;;;;;5053183;28;20021;-85
2022/01/04 08:42:31;;;;;;;6.45;2.80;;;9.90;89.20;;;;;;5051894;28;20506;-85
2022/01/04 08:44:57;;;;;;;7.40;2.70;;;9.90;89.80;;;;;;5043724;28;20013;-85
2022/01/04 08:47:26;;;;;;;7.85;2.70;;;10.00;89.50;;;;;;5044311;28;20028;-84
2022/01/04 08:49:52;;;;;;;7.25;3.00;;;10.00;89.60;;;;;;5045206;28;20025;-85
2022/01/04 08:52:18;;;;;;;6.43;2.58;;;10.00;89.60;;;;;;5043699;28;20028;-85
2022/01/04 08:54:43;;;;;;;6.72;2.60;;;10.00;89.60;;;;;;5045630;28;20026;-86
2022/01/04 08:57:09;;;;;;;11.05;2.85;;;10.10;89.50;;;;;;5043905;28;20024;-85
2022/01/04 08:59:35;;;;;;;8.23;3.00;;;10.10;89.50;;;;;;5046183;28;20097;-85
2022/01/04 09:02:01;;;;;;;5.03;2.88;;;10.20;89.30;;;;;;5045423;28;20045;-85
2022/01/04 09:04:27;;;;;;;4.50;2.45;;;10.20;89.30;;;;;;5055371;28;20028;-85
2022/01/04 09:06:53;;;;;;;9.85;3.13;;;10.30;89.50;;;;;;5048414;28;20033;-85
2022/01/04 09:09:20;;;;;;;8.15;2.90;;;10.30;89.00;;;;;;5048787;28;20017;-85
2022/01/04 09:11:46;;;;;;;7.35;2.10;;;10.30;88.70;;;;;;5042615;28;20032;-85
2022/01/04 09:14:23;;;;;;;7.05;2.53;;;10.30;88.70;;;;;;5045561;28;20462;-84
2022/01/04 09:19:33;;;;;;;6.20;2.72;;;10.30;88.80;;;;;;5034776;28;20396;-85
2022/01/04 09:21:59;;;;;;;4.60;2.70;;;10.40;89.00;;;;;;5035663;28;20021;-85
2022/01/04 09:24:25;;;;;;;7.55;2.45;;;10.30;89.10;;;;;;5034966;28;20448;-85
2022/01/04 09:26:51;;;;;;;4.63;2.10;;;10.40;88.80;;;;;;5035106;28;20037;-85
2022/01/04 09:29:20;;;;;;;8.82;3.08;;;10.40;88.60;;;;;;5035134;28;20056;-85
2022/01/04 09:31:51;;;;;;;8.02;2.42;;;10.50;88.70;;;;;;5040247;28;20048;-85
2022/01/04 09:34:17;;;;;;;7.10;2.40;;;10.50;88.20;;;;;;5044754;28;20021;-85
2022/01/04 09:36:43;;;;;;;4.90;2.17;;;10.50;88.40;;;;;;5044438;28;20036;-85
2022/01/04 09:39:13;;;;;;;7.57;2.05;;;10.40;88.40;;;;;;5042861;28;20057;-85
2022/01/04 09:41:40;;;;;;;4.10;2.15;;;10.40;88.40;;;;;;5043135;28;20025;-85
2022/01/04 09:44:06;;;;;;;4.90;2.30;;;10.40;88.00;;;;;;5042604;28;20082;-85
2022/01/04 09:46:33;;;;;;;7.25;2.08;;;10.40;88.80;;;;;;5045258;28;20021;-85
2022/01/04 09:48:58;;;;;;;8.43;2.45;;;10.30;88.00;;;;;;5046306;28;20033;-85
2022/01/04 09:51:26;;;;;;;6.47;2.65;;;10.30;88.80;;;;;;5054594;28;20036;-85
2022/01/04 09:53:52;;;;;;;4.13;2.20;;;10.40;88.20;;;;;;5054507;28;20021;-85
2022/01/04 09:56:17;;;;;;;5.47;2.75;;;10.40;88.60;;;;;;5053389;28;20031;-85
2022/01/04 09:58:43;;;;;;;9.63;2.90;;;10.50;88.90;;;;;;5054674;28;20071;-85
2022/01/04 10:01:27;;;;;;;6.00;2.30;;;10.50;88.60;;;;;;5053111;28;20056;-83
2022/01/04 10:03:53;;;;;;;7.20;3.10;;;10.50;88.60;;;;;;5052934;28;20056;-85
2022/01/04 10:06:19;;;;;;;8.25;2.38;;;10.60;88.20;;;;;;5036759;28;20027;-84
2022/01/04 10:08:55;;;;;;;4.72;2.33;;;10.60;88.20;;;;;;5043483;28;20021;-84
2022/01/04 10:11:37;;;;;;;8.45;2.83;;;10.60;88.10;;;;;;5074710;28;20020;-84
2022/01/04 10:14:27;;;;;;;6.57;2.63;;;10.60;88.00;;;;;;5074327;28;20033;-84
2022/01/04 10:16:59;;;;;;;7.43;2.60;;;10.70;88.40;;;;;;5033699;28;20026;-84
2022/01/04 10:19:43;;;;;;;5.45;2.50;;;10.70;87.70;;;;;;5034326;28;20048;-84
2022/01/04 10:22:23;;;;;;;8.75;2.88;;;10.80;88.40;;;;;;5034641;28;20025;-84
2022/01/04 10:24:50;;;;;;;6.78;2.28;;;10.80;88.20;;;;;;5048077;28;20030;-84
2022/01/04 10:27:31;;;;;;;8.30;2.50;;;10.80;88.40;;;;;;5043287;28;20562;-86
2022/01/04 10:30:32;;;;;;;7.20;2.83;;;10.90;88.10;;;;;;5054197;28;20033;-86
2022/01/04 10:32:59;;;;;;;11.45;3.53;;;10.90;87.90;;;;;;5035511;28;20037;-85
2022/01/04 10:35:36;;;;;;;5.82;2.80;;;10.90;88.00;;;;;;5032720;28;20599;-86
2022/01/04 10:38:23;;;;;;;8.02;2.80;;;11.00;88.00;;;;;;5034255;28;20466;-87
2022/01/04 10:41:01;;;;;;;7.20;2.67;;;11.00;88.30;;;;;;5048416;28;20116;-85
2022/01/04 10:43:43;;;;;;;6.07;2.60;;;11.00;88.00;;;;;;5046888;28;20017;-86
2022/01/04 10:46:13;;;;;;;5.40;2.25;;;11.00;88.10;;;;;;5034168;28;20037;-86
2022/01/04 10:48:47;;;;;;;8.02;2.92;;;11.10;87.80;;;;;;5034339;28;20575;-86
2022/01/04 10:51:20;;;;;;;12.50;3.08;;;11.00;86.90;;;;;;5034426;28;20044;-86
2022/01/04 10:53:49;;;;;;;8.23;1.98;;;10.90;87.20;;;;;;5034249;28;20037;-86
2022/01/04 10:56:22;;;;;;;10.52;2.38;;;10.90;87.70;;;;;;5033995;28;20112;-86
2022/01/04 10:58:49;;;;;;;6.22;1.80;;;11.00;87.40;;;;;;5034281;28;20392;-86
2022/01/04 11:01:26;;;;;;;6.65;2.30;;;11.00;86.90;;;;;;5033647;28;20029;-85
2022/01/04 11:03:55;;;;;;;3.58;1.40;;;11.00;86.90;;;;;;5034770;28;20027;-86
2022/01/04 11:06:26;;;;;;;11.65;2.22;;;11.00;86.70;;;;;;5051540;28;20040;-86
2022/01/04 11:08:55;;;;;;;4.63;1.65;;;11.10;87.70;;;;;;5055743;28;20111;-85
2022/01/04 11:11:21;;;;;;;5.45;1.92;;;11.20;87.20;;;;;;5056171;28;20035;-85
2022/01/04 11:13:51;;;;;;;3.90;1.60;;;11.10;86.60;;;;;;5056509;28;20033;-85
2022/01/04 11:16:19;;;;;;;8.77;2.25;;;11.20;86.90;;;;;;5057886;28;20028;-84
2022/01/04 11:18:50;;;;;;;6.60;2.30;;;11.30;86.90;;;;;;5051856;28;20036;-82
2022/01/04 11:21:21;;;;;;;12.43;2.47;;;11.40;87.00;;;;;;5048878;28;20401;-84
2022/01/04 11:23:47;;;;;;;5.50;1.83;;;11.40;86.50;;;;;;5048875;28;20025;-85
2022/01/04 11:26:15;;;;;;;9.55;1.65;;;11.50;87.30;;;;;;5050910;28;20029;-86
2022/01/04 11:28:43;;;;;;;9.38;1.98;;;11.50;85.60;;;;;;5043085;28;20044;-85
2022/01/04 11:31:30;;;;;;;8.63;2.22;;;11.60;86.50;;;;;;5043038;28;20057;-86
2022/01/04 11:34:10;;;;;;;12.88;1.90;;;11.60;85.80;;;;;;5043605;28;20057;-87
2022/01/04 11:36:45;;;;;;;10.15;1.70;;;11.60;85.30;;;;;;5044725;28;20127;-83
2022/01/04 11:39:35;;;;;;;7.15;1.90;;;11.50;85.70;;;;;;5050012;28;20805;-84
2022/01/04 11:42:11;;;;;;;2.92;1.50;;;11.50;85.10;;;;;;5041369;28;20043;-86
2022/01/04 11:44:47;;;;;;;7.10;1.75;;;11.60;85.90;;;;;;5040141;28;20017;-86
2022/01/04 11:47:26;;;;;;;4.55;2.15;;;11.60;85.40;;;;;;5047605;28;20025;-87
2022/01/04 11:50:16;;;;;;;6.55;2.20;;;11.50;85.40;;;;;;5046682;28;20029;-81
2022/01/04 11:52:46;;;;;;;4.70;1.58;;;11.40;84.90;;;;;;5045931;28;20033;-84
2022/01/04 11:55:33;;;;;;;9.88;1.40;;;11.20;83.10;;;;;;5050259;28;20025;-90
2022/01/04 11:58:03;;;;;;;5.43;1.30;;;11.00;82.60;;;;;;5036068;28;20033;-87
2022/01/04 12:00:40;;;;;;;4.95;1.25;;;10.80;82.20;;;;;;5045794;28;20025;-87
2022/01/04 12:03:20;;;;;;;3.45;1.20;;;10.80;82.70;;;;;;5044099;28;20115;-87
2022/01/04 12:05:54;;;;;;;2.22;1.45;;;10.90;82.30;;;;;;5045314;28;20021;-89
2022/01/04 12:08:41;;;;;;;5.88;1.60;;;11.20;81.70;;;;;;5047323;28;20021;-88
2022/01/04 12:11:40;;;;;;;2.65;1.30;;;11.20;80.70;;;;;;5046161;28;20100;-89
2022/01/04 12:14:24;;;;;;;4.68;2.20;;;11.10;78.80;;;;;;5038805;28;20029;-88
2022/01/04 12:17:03;;;;;;;2.78;1.35;;;11.20;80.20;;;;;;5046827;28;20114;-90
2022/01/04 12:19:46;;;;;;;3.20;1.50;;;11.50;80.50;;;;;;5044954;28;20028;-87
2022/01/04 12:22:12;;;;;;;1.63;1.00;;;11.40;76.80;;;;;;5043337;28;20026;-90
2022/01/04 12:24:46;;;;;;;2.55;0.85;;;11.40;77.30;;;;;;5038704;28;20089;-89
2022/01/04 12:27:14;;;;;;;4.10;1.65;;;11.30;75.70;;;;;;5040710;28;20032;-89
2022/01/04 12:29:40;;;;;;;5.40;0.90;;;11.30;77.60;;;;;;5056592;28;20040;-90
2022/01/04 12:32:09;;;;;;;6.80;0.88;;;11.30;77.90;;;;;;5049939;28;20075;-89
2022/01/04 12:34:38;;;;;;;2.63;0.88;;;11.30;77.30;;;;;;5034997;28;20055;-89
2022/01/04 12:37:08;;;;;;;4.22;0.90;;;11.30;77.90;;;;;;5036705;28;20091;-89
2022/01/04 12:39:40;;;;;;;3.58;0.80;;;11.40;76.60;;;;;;5034854;28;20128;-89
2022/01/04 12:42:11;;;;;;;2.50;1.65;;;11.30;76.00;;;;;;5036077;28;20036;-89
2022/01/04 12:44:37;;;;;;;4.35;1.05;;;11.40;73.60;;;;;;5039652;28;20139;-90
2022/01/04 12:47:04;;;;;;;1.75;0.75;;;11.60;75.00;;;;;;5043726;28;20040;-89
2022/01/04 12:49:32;;;;;;;1.40;0.90;;;11.60;75.00;;;;;;5047520;28;20041;-88
2022/01/04 12:52:00;;;;;;;4.47;1.13;;;11.60;74.30;;;;;;5035909;28;20032;-88
2022/01/04 12:54:28;;;;;;;3.33;0.65;;;11.70;74.90;;;;;;5050044;28;20485;-89
2022/01/04 12:56:57;;;;;;;2.60;0.80;;;11.50;72.50;;;;;;5043667;28;20116;-88
2022/01/04 12:59:22;;;;;;;1.13;0.77;;;11.30;74.30;;;;;;5044334;28;20438;-88
2022/01/04 13:02:00;;;;;;;0.90;0.70;;;11.20;74.50;;;;;;5043103;28;20088;-88
2022/01/04 13:04:34;;;;;;;2.90;0.70;;;11.20;76.90;;;;;;5051058;28;20592;-88
2022/01/04 13:07:11;;;;;;;1.42;0.93;;;11.30;76.30;;;;;;5050235;28;20030;-88
2022/01/04 13:09:37;;;;;;;3.08;1.15;;;11.20;74.40;;;;;;5044558;28;20031;-88
2022/01/04 13:12:03;;;;;;;1.33;0.77;;;11.10;73.70;;;;;;5046595;28;20515;-87
2022/01/04 13:14:31;;;;;;;2.33;0.80;;;11.20;74.90;;;;;;5035552;28;20056;-88
2022/01/04 13:17:11;;;;;;;5.32;1.15;;;11.00;74.30;;;;;;5036364;28;20053;-88
2022/01/04 13:19:40;;;;;;;2.17;1.10;;;10.90;73.70;;;;;;5044056;28;20033;-88
2022/01/04 13:22:10;;;;;;;4.28;1.10;;;11.00;73.70;;;;;;5036848;28;20037;-87
2022/01/04 13:24:47;;;;;;;5.80;1.17;;;11.00;73.60;;;;;;5043535;28;20403;-87
2022/01/04 13:27:19;;;;;;;4.82;1.27;;;11.10;75.90;;;;;;5048334;28;20031;-87
2022/01/04 13:30:05;;;;;;;6.95;1.20;;;10.90;74.20;;;;;;5034880;28;20025;-88